Leaf Park, Pennsylvania
Current Conditions -  °F | °C
As of 3:53 PM on Sunday 21 Dec 2014 (Local Time) from KLNS Reporting Station
Overcast Overcast  
Wind Chill: 30°   Ceiling: 2800
Heat Index: 34°   Visibility: 10mi
Dew Point: 22°   Wind: 5mph
Humidity: 61%   Direction: 340°NNW
Pressure: 30.29"   Gusts: NA
Location:  40.0115°N, 76.3553°W
Report Text: KLNS 212053Z 34004KT 10SM OVC028 01/M06 A3029 RMK AO2 SLP262 T00111056 55007
Loading
Personal Weather Stations






























Interactive Weather Map New forecast layout! Learn more

10-Day Weather Forecast

Advertisements
Track Severe Weather on mobile